createdAt,value
2023-10-16T00:00:48.791Z,11.14
2023-10-16T00:03:43.067Z,9.61
2023-10-16T00:06:13.472Z,9.07
2023-10-16T00:08:48.664Z,10.12
2023-10-16T00:11:19.587Z,11.04
2023-10-16T00:13:49.264Z,11.13
2023-10-16T00:16:19.649Z,9.53
2023-10-16T00:18:48.237Z,8.88
2023-10-16T00:21:16.213Z,10.00
2023-10-16T00:23:44.256Z,10.34
2023-10-16T00:26:22.905Z,11.21
2023-10-16T00:29:11.457Z,10.28
2023-10-16T00:31:44.803Z,8.76
2023-10-16T00:34:21.100Z,8.49
2023-10-16T00:36:55.984Z,10.07
2023-10-16T00:39:30.437Z,11.25
2023-10-16T00:41:59.592Z,10.18
2023-10-16T00:44:40.240Z,8.71
2023-10-16T00:47:11.110Z,9.30
2023-10-16T00:49:42.974Z,10.34
2023-10-16T00:52:11.889Z,11.17
2023-10-16T00:54:41.582Z,10.06
2023-10-16T00:57:11.971Z,8.79
2023-10-16T00:59:41.072Z,9.44
2023-10-16T01:02:12.790Z,10.38
2023-10-16T01:04:44.583Z,10.84
2023-10-16T01:07:16.506Z,9.28
2023-10-16T01:09:48.661Z,8.90
2023-10-16T01:12:21.886Z,10.30
2023-10-16T01:14:50.210Z,10.76
2023-10-16T01:17:31.332Z,9.41
2023-10-16T01:20:00.851Z,9.18
2023-10-16T01:22:31.167Z,10.70
2023-10-16T01:25:01.327Z,10.38
2023-10-16T01:27:34.641Z,8.92
2023-10-16T01:30:02.856Z,9.11
2023-10-16T01:32:32.815Z,10.55
2023-10-16T01:35:01.765Z,10.38
2023-10-16T01:37:31.213Z,9.05
2023-10-16T01:40:18.817Z,8.85
2023-10-16T01:42:46.796Z,10.54
2023-10-16T01:45:16.833Z,10.53
2023-10-16T01:47:44.929Z,9.10
2023-10-16T01:50:18.878Z,8.66
2023-10-16T01:52:46.840Z,10.13
2023-10-16T01:55:17.714Z,10.66
2023-10-16T01:57:46.175Z,9.61
2023-10-16T02:00:17.985Z,8.53
2023-10-16T02:02:49.151Z,9.16
2023-10-16T02:05:17.294Z,10.42
2023-10-16T02:07:46.491Z,10.39
2023-10-16T02:10:14.593Z,9.24
2023-10-16T02:12:42.626Z,8.63
2023-10-16T02:15:10.881Z,9.85
2023-10-16T02:17:42.200Z,10.62
2023-10-16T02:20:13.755Z,9.43
2023-10-16T02:22:41.712Z,8.57
2023-10-16T02:25:13.058Z,9.51
2023-10-16T02:27:43.015Z,10.82
2023-10-16T02:30:27.166Z,10.13
2023-10-16T02:33:11.576Z,8.55
2023-10-16T02:35:43.493Z,9.45
2023-10-16T02:38:15.337Z,10.43
2023-10-16T02:40:46.177Z,9.95
2023-10-16T02:43:19.920Z,8.78
2023-10-16T02:45:53.240Z,8.42
2023-10-16T02:48:22.633Z,9.71
2023-10-16T02:50:51.794Z,10.68
2023-10-16T02:53:23.746Z,9.52
2023-10-16T02:55:59.604Z,8.42
2023-10-16T02:58:30.087Z,8.59
2023-10-16T03:01:00.165Z,10.37
2023-10-16T03:03:28.621Z,10.56
2023-10-16T03:05:59.364Z,9.44
2023-10-16T03:08:33.601Z,8.38
2023-10-16T03:11:06.464Z,9.16
2023-10-16T03:13:38.038Z,10.50
2023-10-16T03:16:08.988Z,9.52
2023-10-16T03:18:37.087Z,8.40
2023-10-16T03:21:14.299Z,8.96
2023-10-16T03:23:47.665Z,10.51
2023-10-16T03:26:27.965Z,10.74
2023-10-16T03:28:57.670Z,9.26
2023-10-16T03:31:25.993Z,8.31
2023-10-16T03:33:55.385Z,8.90
2023-10-16T03:36:24.206Z,10.57
2023-10-16T03:38:52.220Z,10.43
2023-10-16T03:41:20.313Z,9.27
2023-10-16T03:44:00.228Z,8.23
2023-10-16T03:46:28.972Z,8.83
2023-10-16T03:48:58.310Z,10.52
2023-10-16T03:51:26.291Z,10.73
2023-10-16T03:53:54.164Z,9.39
2023-10-16T03:56:22.069Z,8.45
2023-10-16T03:58:51.276Z,8.22
2023-10-16T04:01:25.172Z,9.47
2023-10-16T04:03:57.880Z,10.96
2023-10-16T04:06:27.875Z,10.52
2023-10-16T04:08:57.106Z,9.15
2023-10-16T04:11:25.778Z,8.55
2023-10-16T04:13:54.200Z,10.09
2023-10-16T04:16:43.289Z,10.36
2023-10-16T04:19:14.061Z,9.10
2023-10-16T04:21:44.900Z,8.21
2023-10-16T04:24:33.932Z,8.73
2023-10-16T04:27:07.897Z,10.57
2023-10-16T04:30:13.318Z,10.45
2023-10-16T04:32:48.743Z,8.91
2023-10-16T04:35:42.548Z,8.81
2023-10-16T04:38:32.581Z,10.58
2023-10-16T04:41:33.288Z,9.87
2023-10-16T04:44:03.943Z,8.52
2023-10-16T04:46:51.775Z,8.37
2023-10-16T04:49:20.752Z,10.38
2023-10-16T04:52:03.061Z,10.75
2023-10-16T04:54:49.903Z,9.27
2023-10-16T04:57:18.067Z,8.90
2023-10-16T05:00:13.420Z,9.98
2023-10-16T05:02:54.046Z,10.76
2023-10-16T05:05:47.188Z,9.40
2023-10-16T05:08:32.590Z,8.43
2023-10-16T05:11:33.118Z,8.60
2023-10-16T05:14:19.656Z,10.84
2023-10-16T05:17:10.806Z,9.87
2023-10-16T05:19:46.467Z,8.54
2023-10-16T05:22:33.388Z,8.60
2023-10-16T05:25:20.166Z,10.19
2023-10-16T05:28:06.944Z,10.69
2023-10-16T05:30:53.281Z,9.31
2023-10-16T05:33:40.034Z,8.42
2023-10-16T05:36:26.682Z,9.38
2023-10-16T05:39:13.096Z,10.45
2023-10-16T05:41:59.784Z,9.24
2023-10-16T05:44:46.410Z,8.29
2023-10-16T05:47:33.017Z,9.27
2023-10-16T05:50:19.912Z,11.10
2023-10-16T05:53:06.626Z,9.87
2023-10-16T05:55:55.437Z,8.62
2023-10-16T05:58:41.929Z,8.82
2023-10-16T06:01:28.742Z,10.86
2023-10-16T06:04:15.664Z,10.98
2023-10-16T06:07:13.283Z,9.43
2023-10-16T06:09:59.791Z,8.52
2023-10-16T06:12:46.536Z,10.26
2023-10-16T06:15:22.239Z,10.73
2023-10-16T06:17:53.224Z,9.56
2023-10-16T06:20:23.488Z,8.61
2023-10-16T06:22:52.846Z,9.55
2023-10-16T06:25:30.261Z,10.52
2023-10-16T06:27:58.443Z,9.39
2023-10-16T06:30:27.051Z,8.54
2023-10-16T06:32:56.046Z,9.50
2023-10-16T06:35:27.666Z,10.78
2023-10-16T06:37:57.413Z,10.49
2023-10-16T06:40:28.103Z,9.40
2023-10-16T06:43:10.926Z,8.48
2023-10-16T06:45:56.931Z,9.83
2023-10-16T06:48:29.762Z,10.53
2023-10-16T06:51:05.611Z,9.26
2023-10-16T06:53:37.044Z,8.73
2023-10-16T06:56:06.293Z,10.35
2023-10-16T06:58:36.887Z,10.48
2023-10-16T07:01:05.993Z,9.45
2023-10-16T07:03:35.303Z,8.48
2023-10-16T07:06:06.820Z,9.13
2023-10-16T07:08:35.155Z,10.43
2023-10-16T07:11:06.260Z,9.82
2023-10-16T07:13:36.203Z,8.65
2023-10-16T07:16:06.290Z,8.56
2023-10-16T07:18:36.074Z,10.02
2023-10-16T07:21:05.328Z,10.39
2023-10-16T07:23:38.341Z,9.43
2023-10-16T07:26:09.311Z,8.59
2023-10-16T07:28:39.503Z,9.36
2023-10-16T07:31:12.214Z,10.76
2023-10-16T07:33:42.994Z,9.71
2023-10-16T07:36:13.943Z,8.73
2023-10-16T07:38:46.104Z,9.76
2023-10-16T07:41:14.791Z,10.78
2023-10-16T07:43:47.559Z,9.73
2023-10-16T07:46:29.339Z,8.80
2023-10-16T07:49:20.158Z,9.74
2023-10-16T07:51:49.361Z,11.52
2023-10-16T07:54:18.780Z,10.45
2023-10-16T07:56:46.833Z,9.26
2023-10-16T07:59:20.210Z,9.18
2023-10-16T08:01:53.978Z,10.57
2023-10-16T08:04:26.075Z,11.75
2023-10-16T08:07:06.404Z,10.47
2023-10-16T08:09:38.603Z,9.19
2023-10-16T08:12:25.893Z,9.20
2023-10-16T08:14:55.765Z,11.12
2023-10-16T08:17:27.849Z,11.16
2023-10-16T08:19:56.062Z,9.92
2023-10-16T08:22:27.555Z,8.95
2023-10-16T08:25:06.231Z,10.10
2023-10-16T08:30:35.573Z,9.95
2023-10-16T08:33:11.245Z,8.99
2023-10-16T08:35:47.261Z,8.85
2023-10-16T08:38:27.329Z,10.52
2023-10-16T08:41:00.434Z,11.60
2023-10-16T08:43:41.548Z,10.17
2023-10-16T08:46:30.297Z,9.01
2023-10-16T08:49:02.712Z,9.80
2023-10-16T08:51:34.360Z,11.13
2023-10-16T08:54:06.222Z,10.84
2023-10-16T08:56:34.428Z,9.56
2023-10-16T08:59:03.220Z,8.70
2023-10-16T09:01:33.778Z,9.45
2023-10-16T09:04:10.370Z,10.99
2023-10-16T09:06:39.152Z,10.40
2023-10-16T09:09:14.337Z,9.13
2023-10-16T09:11:46.761Z,8.93
2023-10-16T09:14:18.867Z,10.43
2023-10-16T09:16:53.954Z,11.11
2023-10-16T09:19:35.275Z,10.13
2023-10-16T09:22:09.841Z,9.16
2023-10-16T09:24:40.356Z,8.93
2023-10-16T09:27:24.002Z,10.74
2023-10-16T09:29:57.878Z,11.11
2023-10-16T09:32:37.913Z,9.76
2023-10-16T09:35:07.968Z,8.69
2023-10-16T09:37:38.423Z,9.28
2023-10-16T09:40:24.447Z,11.18
2023-10-16T09:43:09.900Z,10.51
2023-10-16T09:45:38.073Z,9.37
2023-10-16T09:48:09.796Z,8.61
2023-10-16T09:50:39.385Z,9.67
2023-10-16T09:53:09.391Z,11.20
2023-10-16T09:55:45.068Z,11.12
2023-10-16T09:58:13.062Z,9.78
2023-10-16T10:00:46.365Z,8.73
2023-10-16T10:03:16.227Z,9.10
2023-10-16T10:06:10.275Z,10.97
2023-10-16T10:08:59.541Z,10.83
2023-10-16T10:11:40.114Z,9.58
2023-10-16T10:14:30.620Z,8.81
2023-10-16T10:17:01.583Z,9.50
2023-10-16T10:19:37.809Z,11.36
2023-10-16T10:22:18.644Z,11.93
2023-10-16T10:25:14.777Z,10.35
2023-10-16T10:27:49.204Z,9.17
2023-10-16T10:30:26.673Z,8.89
2023-10-16T10:33:00.725Z,10.71
2023-10-16T10:35:30.091Z,10.83
2023-10-16T10:38:25.891Z,9.75
2023-10-16T10:41:12.180Z,8.88
2023-10-16T10:43:47.877Z,8.49
2023-10-16T10:46:16.616Z,9.93
2023-10-16T10:48:45.117Z,11.27
2023-10-16T10:51:16.352Z,10.60
2023-10-16T10:53:58.638Z,9.75
2023-10-16T10:56:43.094Z,9.04
2023-10-16T10:59:12.045Z,9.42
2023-10-16T11:01:53.345Z,11.29
2023-10-16T11:04:22.694Z,11.91
2023-10-16T11:06:55.907Z,10.98
2023-10-16T11:09:28.365Z,10.17
2023-10-16T11:11:56.320Z,9.55
2023-10-16T11:14:42.325Z,9.13
2023-10-16T11:17:10.317Z,8.85
2023-10-16T11:19:49.182Z,8.89
2023-10-16T11:22:21.875Z,10.91
2023-10-16T11:24:50.185Z,11.56
2023-10-16T11:27:18.295Z,10.71
2023-10-16T11:29:47.595Z,9.95
2023-10-16T11:32:19.187Z,9.35
2023-10-16T11:34:51.298Z,8.91
2023-10-16T11:37:26.722Z,8.60
2023-10-16T11:39:58.697Z,8.35
2023-10-16T11:42:27.484Z,8.80
2023-10-16T11:44:55.538Z,10.93
2023-10-16T11:47:24.974Z,12.11
2023-10-16T11:49:56.132Z,11.31
2023-10-16T11:52:28.723Z,10.20
2023-10-16T11:54:59.729Z,9.44
2023-10-16T11:57:28.785Z,9.02
2023-10-16T11:59:57.016Z,8.73
2023-10-16T12:02:35.502Z,9.16
2023-10-16T12:05:07.332Z,11.48
2023-10-16T12:07:35.472Z,11.88
2023-10-16T12:10:06.762Z,10.90
2023-10-16T12:12:35.314Z,10.09
2023-10-16T12:15:04.099Z,9.61
2023-10-16T12:17:32.110Z,9.25
2023-10-16T12:20:00.062Z,8.95
2023-10-16T12:22:28.019Z,8.71
2023-10-16T12:24:57.765Z,9.20
2023-10-16T12:27:26.654Z,11.36
2023-10-16T12:29:54.616Z,12.48
2023-10-16T12:32:22.503Z,11.65
2023-10-16T12:34:51.237Z,10.67
2023-10-16T12:37:23.507Z,9.98
2023-10-16T12:39:54.442Z,9.57
2023-10-16T12:42:23.199Z,9.30
2023-10-16T12:44:51.184Z,9.06
2023-10-16T12:47:31.921Z,9.42
2023-10-16T12:50:06.766Z,11.69
2023-10-16T12:52:34.952Z,12.38
2023-10-16T12:55:03.372Z,11.46
2023-10-16T12:57:31.351Z,10.61
2023-10-16T12:59:59.334Z,9.89
2023-10-16T13:02:27.763Z,9.49
2023-10-16T13:04:57.480Z,10.36
2023-10-16T13:07:39.948Z,10.89
2023-10-16T13:10:15.608Z,10.48
2023-10-16T13:12:45.065Z,9.46
2023-10-16T13:15:17.833Z,10.12
2023-10-16T13:17:50.450Z,11.21
2023-10-16T13:20:19.315Z,11.83
2023-10-16T13:22:51.186Z,10.95
2023-10-16T13:25:26.757Z,9.99
2023-10-16T13:27:57.377Z,9.81
2023-10-16T13:30:27.141Z,11.51
2023-10-16T13:32:55.826Z,12.88
2023-10-16T13:35:24.456Z,13.14
2023-10-16T13:37:52.626Z,12.06
2023-10-16T13:40:26.167Z,11.56
2023-10-16T13:42:56.615Z,11.16
2023-10-16T13:45:27.219Z,12.26
2023-10-16T13:47:56.412Z,14.22
2023-10-16T13:50:29.276Z,14.60
2023-10-16T13:52:57.425Z,13.40
2023-10-16T13:55:25.851Z,12.44
2023-10-16T13:57:56.161Z,11.73
2023-10-16T14:00:33.025Z,11.17
2023-10-16T14:03:11.129Z,10.67
2023-10-16T14:05:52.319Z,10.33
2023-10-16T14:08:32.336Z,10.07
2023-10-16T14:11:01.725Z,9.82
2023-10-16T14:13:31.273Z,10.02
2023-10-16T14:16:11.387Z,11.93
2023-10-16T14:18:45.845Z,12.41
2023-10-16T14:21:15.558Z,11.42
2023-10-16T14:23:45.731Z,10.67
2023-10-16T14:26:23.018Z,10.11
2023-10-16T14:28:56.084Z,9.63
2023-10-16T14:31:27.095Z,9.28
2023-10-16T14:33:58.046Z,9.01
2023-10-16T14:36:26.906Z,9.03
2023-10-16T14:38:55.726Z,10.55
2023-10-16T14:41:24.806Z,11.85
2023-10-16T14:43:56.025Z,11.07
2023-10-16T14:46:26.995Z,10.34
2023-10-16T14:48:55.386Z,9.77
2023-10-16T14:51:23.636Z,9.30
2023-10-16T14:53:52.224Z,8.97
2023-10-16T14:56:21.276Z,8.72
2023-10-16T14:59:14.905Z,9.22
2023-10-16T15:01:39.001Z,11.45
2023-10-16T15:04:10.316Z,12.23
2023-10-16T15:06:38.734Z,11.33
2023-10-16T15:09:11.201Z,10.39
2023-10-16T15:11:39.190Z,9.68
2023-10-16T15:14:07.079Z,9.18
2023-10-16T15:16:35.334Z,8.84
2023-10-16T15:19:09.308Z,9.37
2023-10-16T15:21:38.398Z,10.94
2023-10-16T15:24:07.071Z,12.00
2023-10-16T15:26:34.965Z,11.22
2023-10-16T15:29:02.887Z,10.27
2023-10-16T15:31:30.991Z,9.62
2023-10-16T15:34:00.941Z,10.15
2023-10-16T15:36:33.748Z,11.91
2023-10-16T15:39:06.281Z,12.67
2023-10-16T15:41:34.437Z,11.59
2023-10-16T15:44:04.201Z,10.61
2023-10-16T15:46:33.124Z,9.86
2023-10-16T15:49:01.438Z,9.34
2023-10-16T15:51:33.769Z,9.42
2023-10-16T15:54:04.016Z,11.06
2023-10-16T15:56:33.656Z,12.42
2023-10-16T15:59:01.670Z,12.86
2023-10-16T16:01:31.270Z,11.79
2023-10-16T16:04:03.831Z,10.62
2023-10-16T16:06:34.873Z,9.75
2023-10-16T16:09:05.288Z,9.54
2023-10-16T16:11:33.314Z,10.90
2023-10-16T16:14:01.702Z,11.66
2023-10-16T16:16:30.153Z,10.67
2023-10-16T16:18:58.878Z,9.81
2023-10-16T16:21:26.965Z,9.66
2023-10-16T16:23:55.100Z,11.02
2023-10-16T16:26:23.128Z,11.40
2023-10-16T16:28:51.772Z,10.47
2023-10-16T16:31:21.662Z,9.66
2023-10-16T16:33:52.638Z,9.06
2023-10-16T16:36:25.124Z,9.17
2023-10-16T16:38:59.917Z,10.99
2023-10-16T16:41:28.226Z,12.44
2023-10-16T16:43:56.242Z,13.07
2023-10-16T16:46:26.121Z,12.42
2023-10-16T16:48:54.781Z,11.18
2023-10-16T16:51:25.079Z,10.26
2023-10-16T16:53:54.354Z,9.57
2023-10-16T16:56:22.709Z,9.08
2023-10-16T16:58:50.681Z,9.07
2023-10-16T17:01:18.791Z,10.72
2023-10-16T17:03:48.219Z,12.17
2023-10-16T17:06:18.462Z,12.72
2023-10-16T17:08:46.434Z,11.65
2023-10-16T17:11:17.205Z,10.50
2023-10-16T17:13:47.103Z,9.69
2023-10-16T17:16:18.161Z,9.58
2023-10-16T17:18:48.015Z,11.13
2023-10-16T17:21:25.427Z,12.39
2023-10-16T17:23:58.966Z,12.32
2023-10-16T17:26:27.362Z,11.09
2023-10-16T17:28:58.207Z,10.04
2023-10-16T17:31:26.941Z,9.31
2023-10-16T17:33:56.320Z,9.20
2023-10-16T17:36:24.807Z,10.78
2023-10-16T17:38:52.805Z,12.16
2023-10-16T17:41:22.844Z,12.51
2023-10-16T17:43:51.633Z,11.39
2023-10-16T17:46:20.473Z,10.31
2023-10-16T17:48:48.411Z,9.56
2023-10-16T17:51:18.161Z,9.40
2023-10-16T17:53:46.349Z,10.92
2023-10-16T17:56:15.002Z,12.32
2023-10-16T17:58:43.798Z,12.77
2023-10-16T18:01:14.227Z,11.71
2023-10-16T18:03:42.882Z,10.62
2023-10-16T18:06:15.385Z,9.89
2023-10-16T18:08:47.517Z,9.35
2023-10-16T18:11:15.580Z,8.93
2023-10-16T18:13:45.255Z,8.99
2023-10-16T18:16:14.505Z,10.72
2023-10-16T18:18:42.588Z,12.21
2023-10-16T18:21:10.556Z,12.72
2023-10-16T18:23:38.475Z,11.67
2023-10-16T18:26:06.455Z,10.53
2023-10-16T18:28:34.463Z,9.72
2023-10-16T18:31:04.440Z,9.15
2023-10-16T18:33:32.449Z,9.19
2023-10-16T18:36:02.985Z,10.80
2023-10-16T18:38:31.347Z,12.26
2023-10-16T18:41:00.749Z,12.75
2023-10-16T18:43:28.817Z,11.68
2023-10-16T18:45:57.850Z,10.54
2023-10-16T18:48:25.969Z,9.72
2023-10-16T18:50:54.232Z,9.47
2023-10-16T18:53:23.145Z,10.88
2023-10-16T18:55:53.218Z,12.28
2023-10-16T18:58:23.707Z,12.71
2023-10-16T19:01:02.200Z,11.59
2023-10-16T19:03:31.271Z,10.40
2023-10-16T19:06:07.527Z,9.61
2023-10-16T19:08:36.215Z,9.60
2023-10-16T19:11:04.931Z,11.11
2023-10-16T19:13:33.217Z,11.91
2023-10-16T19:16:02.115Z,11.10
2023-10-16T19:18:32.484Z,10.09
2023-10-16T19:21:02.936Z,9.37
2023-10-16T19:23:32.963Z,9.27
2023-10-16T19:26:14.432Z,10.79
2023-10-16T19:28:42.754Z,12.41
2023-10-16T19:31:17.187Z,12.79
2023-10-16T19:33:46.861Z,11.52
2023-10-16T19:36:16.394Z,10.26
2023-10-16T19:38:51.378Z,9.43
2023-10-16T19:41:23.372Z,9.35
2023-10-16T19:43:52.249Z,10.88
2023-10-16T19:46:21.345Z,11.78
2023-10-16T19:48:51.420Z,11.02
2023-10-16T19:51:25.226Z,9.95
2023-10-16T19:53:56.890Z,9.14
2023-10-16T19:56:25.449Z,9.00
2023-10-16T19:58:53.958Z,10.66
2023-10-16T20:01:23.796Z,12.04
2023-10-16T20:03:53.741Z,11.74
2023-10-16T20:06:22.637Z,10.48
2023-10-16T20:08:51.515Z,9.52
2023-10-16T20:11:19.484Z,9.33
2023-10-16T20:13:47.308Z,10.89
2023-10-16T20:16:15.209Z,12.22
2023-10-16T20:18:43.307Z,12.70
2023-10-16T20:21:19.652Z,11.64
2023-10-16T20:23:48.701Z,10.41
2023-10-16T20:26:18.151Z,9.55
2023-10-16T20:28:50.401Z,9.25
2023-10-16T20:31:20.303Z,10.66
2023-10-16T20:33:50.364Z,11.80
2023-10-16T20:36:19.061Z,11.89
2023-10-16T20:38:47.222Z,10.68
2023-10-16T20:41:16.523Z,9.70
2023-10-16T20:43:44.443Z,9.48
2023-10-16T20:46:12.586Z,11.01
2023-10-16T20:48:40.758Z,12.40
2023-10-16T20:51:08.780Z,12.87
2023-10-16T20:53:36.709Z,11.75
2023-10-16T20:56:07.750Z,10.60
2023-10-16T20:58:35.634Z,9.74
2023-10-16T21:01:07.981Z,9.50
2023-10-16T21:03:36.705Z,11.07
2023-10-16T21:06:05.755Z,12.45
2023-10-16T21:08:33.694Z,12.86
2023-10-16T21:11:01.514Z,11.71
2023-10-16T21:13:30.057Z,10.57
2023-10-16T21:15:57.975Z,9.75
2023-10-16T21:18:27.489Z,9.55
2023-10-16T21:20:59.288Z,11.05
2023-10-16T21:23:27.283Z,12.45
2023-10-16T21:25:55.451Z,12.88
2023-10-16T21:28:24.230Z,11.84
2023-10-16T21:30:58.104Z,10.71
2023-10-16T21:33:27.091Z,9.90
2023-10-16T21:36:04.986Z,9.34
2023-10-16T21:38:33.470Z,9.38
2023-10-16T21:41:02.422Z,11.08
2023-10-16T21:43:30.665Z,12.53
2023-10-16T21:46:01.497Z,13.00
2023-10-16T21:48:29.692Z,11.90
2023-10-16T21:50:57.783Z,10.81
2023-10-16T21:53:25.994Z,10.02
2023-10-16T21:55:54.043Z,9.41
2023-10-16T21:58:21.872Z,9.35
2023-10-16T22:01:07.836Z,10.89
2023-10-16T22:03:36.731Z,12.37
2023-10-16T22:06:05.120Z,13.13
2023-10-16T22:08:34.600Z,13.19
2023-10-16T22:11:02.531Z,11.89
2023-10-16T22:13:30.823Z,10.70
2023-10-16T22:16:00.439Z,9.89
2023-10-16T22:18:29.201Z,9.73
2023-10-16T22:21:07.080Z,11.26
2023-10-16T22:23:44.768Z,12.79
2023-10-16T22:26:13.957Z,13.15
2023-10-16T22:28:44.100Z,11.98
2023-10-16T22:31:12.043Z,10.79
2023-10-16T22:33:39.912Z,10.00
2023-10-16T22:36:11.897Z,9.81
2023-10-16T22:38:39.921Z,11.29
2023-10-16T22:41:07.982Z,12.57
2023-10-16T22:43:36.900Z,13.27
2023-10-16T22:46:08.370Z,13.33
2023-10-16T22:48:36.917Z,12.04
2023-10-16T22:51:06.852Z,10.86
2023-10-16T22:53:35.647Z,10.02
2023-10-16T22:56:06.643Z,9.80
2023-10-16T22:58:34.750Z,11.18
2023-10-16T23:01:06.272Z,12.51
2023-10-16T23:03:36.871Z,12.99
2023-10-16T23:06:06.771Z,11.84
2023-10-16T23:08:41.722Z,10.61
2023-10-16T23:11:19.312Z,10.08
2023-10-16T23:13:54.730Z,11.44
2023-10-16T23:16:28.767Z,12.64
2023-10-16T23:18:57.021Z,12.97
2023-10-16T23:21:27.963Z,11.82
2023-10-16T23:23:56.288Z,10.62
2023-10-16T23:26:24.254Z,9.77
2023-10-16T23:28:52.129Z,9.55
2023-10-16T23:31:25.361Z,10.97
2023-10-16T23:34:03.426Z,12.15
2023-10-16T23:36:31.434Z,12.81
2023-10-16T23:39:01.698Z,12.82
2023-10-16T23:41:29.854Z,11.40
2023-10-16T23:43:57.734Z,10.03
2023-10-16T23:46:29.721Z,9.36
2023-10-16T23:49:09.457Z,10.53
2023-10-16T23:51:37.674Z,11.67
2023-10-16T23:54:15.257Z,11.86
2023-10-16T23:57:13.305Z,10.56
2023-10-16T23:59:49.550Z,9.02
